createdAt,value
2018-06-28T00:00:01.358Z,13.30
2018-06-28T00:01:01.353Z,13.70
2018-06-28T00:02:01.353Z,14.90
2018-06-28T00:03:01.355Z,13.10
2018-06-28T00:04:01.352Z,12.80
2018-06-28T00:05:01.351Z,12.60
2018-06-28T00:06:01.351Z,12.70
2018-06-28T00:07:01.344Z,13.20
2018-06-28T00:08:01.343Z,13.60
2018-06-28T00:09:01.342Z,13.10
2018-06-28T00:10:01.347Z,13.60
2018-06-28T00:11:01.343Z,12.80
2018-06-28T00:12:01.344Z,13.20
2018-06-28T00:13:01.335Z,13.70
2018-06-28T00:14:01.334Z,14.40
2018-06-28T00:15:01.339Z,13.80
2018-06-28T00:16:01.336Z,15.30
2018-06-28T00:17:01.333Z,13.80
2018-06-28T00:18:01.333Z,14.60
2018-06-28T00:19:01.330Z,14.90
2018-06-28T00:20:01.330Z,13.80
2018-06-28T00:21:01.322Z,14.10
2018-06-28T00:22:01.321Z,13.20
2018-06-28T00:23:01.324Z,14.50
2018-06-28T00:24:01.323Z,14.30
2018-06-28T00:25:01.321Z,13.40
2018-06-28T00:26:01.321Z,14.10
2018-06-28T00:27:01.315Z,13.40
2018-06-28T00:28:01.311Z,13.50
2018-06-28T00:29:01.314Z,13.90
2018-06-28T00:30:01.315Z,13.30
2018-06-28T00:31:01.308Z,13.30
2018-06-28T00:32:01.305Z,13.70
2018-06-28T00:33:01.303Z,14.00
2018-06-28T00:34:01.302Z,13.60
2018-06-28T00:35:01.305Z,13.80
2018-06-28T00:36:01.302Z,14.80
2018-06-28T00:37:01.301Z,15.30
2018-06-28T00:38:01.302Z,13.80
2018-06-28T00:39:01.294Z,14.40
2018-06-28T00:40:01.291Z,15.20
2018-06-28T00:41:01.290Z,14.00
2018-06-28T00:42:01.290Z,15.10
2018-06-28T00:43:01.295Z,15.40
2018-06-28T00:44:01.290Z,14.30
2018-06-28T00:45:01.283Z,14.90
2018-06-28T00:46:01.282Z,14.00
2018-06-28T00:47:01.287Z,13.60
2018-06-28T00:48:01.283Z,13.50
2018-06-28T00:49:01.280Z,14.70
2018-06-28T00:50:01.279Z,13.10
2018-06-28T00:51:01.273Z,13.90
2018-06-28T00:52:01.270Z,14.20
2018-06-28T00:53:01.271Z,14.80
2018-06-28T00:54:01.267Z,14.10
2018-06-28T00:55:01.271Z,14.90
2018-06-28T00:56:01.267Z,14.60
2018-06-28T00:57:01.267Z,14.50
2018-06-28T00:58:01.284Z,13.40
2018-06-28T00:59:01.257Z,15.00
2018-06-28T01:00:01.256Z,14.50
2018-06-28T01:01:01.259Z,14.80
2018-06-28T01:02:01.257Z,15.70
2018-06-28T01:03:01.250Z,14.90
2018-06-28T01:04:01.248Z,14.70
2018-06-28T01:05:01.246Z,13.70
2018-06-28T01:06:01.244Z,15.70
2018-06-28T01:07:01.246Z,15.00
2018-06-28T01:08:01.246Z,14.50
2018-06-28T01:09:01.242Z,13.40
2018-06-28T01:10:01.242Z,15.60
2018-06-28T01:11:01.235Z,13.70
2018-06-28T01:12:01.233Z,13.80
2018-06-28T01:13:01.231Z,15.40
2018-06-28T01:14:01.230Z,15.00
2018-06-28T01:15:01.231Z,15.00
2018-06-28T01:16:01.229Z,15.70
2018-06-28T01:17:01.222Z,14.60
2018-06-28T01:18:01.220Z,14.10
2018-06-28T01:19:01.224Z,15.60
2018-06-28T01:20:01.221Z,16.00
2018-06-28T01:21:01.219Z,15.70
2018-06-28T01:22:01.218Z,15.50
2018-06-28T01:23:01.212Z,16.50
2018-06-28T01:24:01.209Z,15.80
2018-06-28T01:25:01.209Z,14.40
2018-06-28T01:26:01.204Z,15.90
2018-06-28T01:27:01.207Z,15.20
2018-06-28T01:28:01.253Z,13.50
2018-06-28T01:29:01.202Z,15.00
2018-06-28T01:30:01.200Z,14.20
2018-06-28T01:31:01.195Z,14.40
2018-06-28T01:32:01.190Z,15.30
2018-06-28T01:33:01.195Z,16.40
2018-06-28T01:34:01.192Z,15.80
2018-06-28T01:35:01.187Z,15.10
2018-06-28T01:36:01.182Z,15.60
2018-06-28T01:37:01.184Z,15.30
2018-06-28T01:38:01.178Z,15.80
2018-06-28T01:39:01.184Z,16.20
2018-06-28T01:40:01.178Z,16.60
2018-06-28T01:41:01.178Z,16.50
2018-06-28T01:42:01.175Z,15.50
2018-06-28T01:43:01.167Z,17.00
2018-06-28T01:44:01.207Z,17.10
2018-06-28T01:45:01.162Z,15.10
2018-06-28T01:46:01.159Z,17.00
2018-06-28T01:47:01.162Z,16.40
2018-06-28T01:48:01.159Z,15.50
2018-06-28T01:49:01.154Z,16.10
2018-06-28T01:50:01.150Z,15.20
2018-06-28T01:51:01.152Z,15.60
2018-06-28T01:52:01.149Z,15.70
2018-06-28T01:53:01.227Z,16.50
2018-06-28T01:54:01.145Z,15.80
2018-06-28T01:55:01.140Z,15.10
2018-06-28T01:56:01.136Z,15.80
2018-06-28T01:57:01.135Z,16.10
2018-06-28T01:58:01.132Z,15.90
2018-06-28T01:59:01.133Z,15.50
2018-06-28T02:00:01.131Z,15.90
2018-06-28T02:01:01.129Z,15.20
2018-06-28T02:02:01.127Z,15.90
2018-06-28T02:03:01.122Z,14.80
2018-06-28T02:04:01.116Z,15.80
2018-06-28T02:05:01.117Z,15.40
2018-06-28T02:06:01.115Z,16.30
2018-06-28T02:07:01.109Z,15.60
2018-06-28T02:08:01.105Z,15.90
2018-06-28T02:09:01.103Z,15.80
2018-06-28T02:10:01.101Z,14.90
2018-06-28T02:11:01.105Z,14.50
2018-06-28T02:12:01.104Z,15.40
2018-06-28T02:13:01.093Z,14.50
2018-06-28T02:14:01.091Z,15.80
2018-06-28T02:15:01.092Z,14.80
2018-06-28T02:16:01.090Z,14.60
2018-06-28T02:17:01.088Z,15.70
2018-06-28T02:18:01.085Z,14.80
2018-06-28T02:19:01.083Z,16.40
2018-06-28T02:20:01.076Z,15.50
2018-06-28T02:21:01.077Z,14.80
2018-06-28T02:22:01.075Z,15.50
2018-06-28T02:23:01.068Z,16.30
2018-06-28T02:24:01.064Z,16.00
2018-06-28T02:25:01.064Z,16.80
2018-06-28T02:26:01.060Z,17.40
2018-06-28T02:27:01.061Z,16.10
2018-06-28T02:28:01.058Z,15.30
2018-06-28T02:29:01.055Z,15.60
2018-06-28T02:30:01.053Z,15.40
2018-06-28T02:31:01.046Z,17.00
2018-06-28T02:32:01.047Z,16.30
2018-06-28T02:33:01.040Z,16.00
2018-06-28T02:34:01.038Z,16.40
2018-06-28T02:35:01.042Z,17.20
2018-06-28T02:36:01.038Z,16.30
2018-06-28T02:37:01.030Z,16.00
2018-06-28T02:38:01.027Z,17.30
2018-06-28T02:39:01.030Z,15.90
2018-06-28T02:40:01.026Z,15.20
2018-06-28T02:41:01.023Z,16.50
2018-06-28T02:42:01.024Z,16.30
2018-06-28T02:43:01.012Z,17.10
2018-06-28T02:44:01.010Z,15.70
2018-06-28T02:45:01.007Z,16.50
2018-06-28T02:46:01.004Z,16.00
2018-06-28T02:47:01.007Z,16.00
2018-06-28T02:48:01.003Z,17.20
2018-06-28T02:49:01.002Z,16.10
2018-06-28T02:50:01.003Z,17.20
2018-06-28T02:51:00.990Z,17.30
2018-06-28T02:52:00.988Z,18.00
2018-06-28T02:53:00.990Z,17.90
2018-06-28T02:54:00.987Z,16.50
2018-06-28T02:55:00.979Z,16.80
2018-06-28T02:56:00.977Z,17.10
2018-06-28T02:57:00.973Z,16.90
2018-06-28T02:58:00.970Z,17.90
2018-06-28T02:59:00.971Z,17.10
2018-06-28T03:00:00.968Z,18.50
2018-06-28T03:01:00.965Z,18.20
2018-06-28T03:02:00.964Z,17.80
2018-06-28T03:03:00.956Z,17.50
2018-06-28T03:04:00.953Z,15.70
2018-06-28T03:05:00.949Z,16.20
2018-06-28T03:06:00.946Z,16.60
2018-06-28T03:07:00.949Z,16.60
2018-06-28T03:08:00.944Z,16.10
2018-06-28T03:09:00.937Z,16.50
2018-06-28T03:10:00.934Z,16.60
2018-06-28T03:11:00.937Z,16.80
2018-06-28T03:12:00.933Z,16.20
2018-06-28T03:13:00.977Z,16.70
2018-06-28T03:14:00.926Z,17.60
2018-06-28T03:15:00.919Z,17.10
2018-06-28T03:16:00.916Z,16.60
2018-06-28T03:17:00.913Z,17.10
2018-06-28T03:18:00.912Z,16.10
2018-06-28T03:19:00.914Z,16.70
2018-06-28T03:20:00.908Z,17.20
2018-06-28T03:21:00.905Z,15.60
2018-06-28T03:22:00.901Z,16.30
2018-06-28T03:23:00.894Z,17.10
2018-06-28T03:24:00.890Z,18.30
2018-06-28T03:25:00.893Z,15.90
2018-06-28T03:26:00.892Z,17.30
2018-06-28T03:27:00.881Z,17.50
2018-06-28T03:28:00.879Z,16.00
2018-06-28T03:29:00.876Z,16.20
2018-06-28T03:30:00.873Z,15.90
2018-06-28T03:31:00.905Z,17.30
2018-06-28T03:32:00.872Z,16.80
2018-06-28T03:33:00.868Z,16.50
2018-06-28T03:34:00.866Z,17.10
2018-06-28T03:35:00.858Z,17.40
2018-06-28T03:36:00.855Z,17.50
2018-06-28T03:37:00.850Z,17.40
2018-06-28T03:38:00.891Z,16.50
2018-06-28T03:39:00.849Z,17.60
2018-06-28T03:40:00.851Z,17.80
2018-06-28T03:41:00.838Z,16.10
2018-06-28T03:42:00.835Z,16.80
2018-06-28T03:43:00.840Z,16.80
2018-06-28T03:44:00.832Z,17.40
2018-06-28T03:45:00.831Z,17.90
2018-06-28T03:46:00.870Z,17.30
2018-06-28T03:47:00.819Z,17.60
2018-06-28T03:48:00.816Z,17.40
2018-06-28T03:49:00.812Z,16.70
2018-06-28T03:50:00.809Z,17.80
2018-06-28T03:51:00.812Z,17.00
2018-06-28T03:52:00.807Z,17.00
2018-06-28T03:53:00.804Z,17.30
2018-06-28T03:54:00.802Z,18.00
2018-06-28T03:55:00.794Z,18.50
2018-06-28T03:56:00.790Z,17.90
2018-06-28T03:57:00.813Z,17.30
2018-06-28T03:58:00.790Z,19.90
2018-06-28T03:59:00.782Z,19.00
2018-06-28T04:00:00.778Z,19.80
2018-06-28T04:01:00.775Z,18.40
2018-06-28T04:02:00.773Z,18.80
2018-06-28T04:03:00.775Z,18.70
2018-06-28T04:04:00.771Z,17.50
2018-06-28T04:05:00.768Z,17.50
2018-06-28T04:06:00.766Z,19.00
2018-06-28T04:07:00.760Z,18.20
2018-06-28T04:08:00.753Z,19.10
2018-06-28T04:09:00.750Z,19.00
2018-06-28T04:10:00.748Z,17.90
2018-06-28T04:11:00.749Z,18.80
2018-06-28T04:12:00.749Z,17.60
2018-06-28T04:13:00.743Z,18.90
2018-06-28T04:14:00.736Z,17.90
2018-06-28T04:15:00.738Z,18.70
2018-06-28T04:16:00.733Z,18.50
2018-06-28T04:17:00.732Z,19.20
2018-06-28T04:18:00.729Z,19.00
2018-06-28T04:19:00.721Z,18.20
2018-06-28T04:20:00.718Z,18.40
2018-06-28T04:21:00.716Z,18.60
2018-06-28T04:22:00.711Z,18.10
2018-06-28T04:23:00.713Z,17.80
2018-06-28T04:24:00.711Z,18.40
2018-06-28T04:25:00.708Z,17.90
2018-06-28T04:26:00.705Z,18.90
2018-06-28T04:27:00.697Z,18.40
2018-06-28T04:28:00.693Z,19.50
2018-06-28T04:29:00.696Z,18.60
2018-06-28T04:30:00.694Z,18.10
2018-06-28T04:31:00.688Z,18.60
2018-06-28T04:32:00.688Z,19.30
2018-06-28T04:33:00.683Z,18.70
2018-06-28T04:34:00.677Z,18.30
2018-06-28T04:35:00.680Z,19.00
2018-06-28T04:36:00.676Z,18.10
2018-06-28T04:37:00.672Z,17.60
2018-06-28T04:38:00.670Z,17.20
2018-06-28T04:39:00.663Z,17.30
2018-06-28T04:40:00.660Z,17.80
2018-06-28T04:41:00.729Z,18.90
2018-06-28T04:42:00.655Z,19.30
2018-06-28T04:43:00.658Z,17.50
2018-06-28T04:44:00.654Z,19.40
2018-06-28T04:45:00.647Z,18.70
2018-06-28T04:46:00.645Z,18.60
2018-06-28T04:47:00.647Z,18.70
2018-06-28T04:48:00.645Z,19.00
2018-06-28T04:49:00.641Z,18.80
2018-06-28T04:50:00.639Z,18.50
2018-06-28T04:51:00.633Z,17.30
2018-06-28T04:52:00.630Z,17.10
2018-06-28T04:53:00.627Z,18.10
2018-06-28T04:54:00.624Z,18.30
2018-06-28T04:55:00.629Z,19.10
2018-06-28T04:56:00.624Z,18.30
2018-06-28T04:57:00.623Z,18.10
2018-06-28T04:58:00.623Z,18.50
2018-06-28T04:59:00.613Z,18.30
2018-06-28T05:00:00.610Z,18.10
2018-06-28T05:01:00.613Z,18.20
2018-06-28T05:02:00.611Z,19.10
2018-06-28T05:03:00.609Z,18.30
2018-06-28T05:04:00.604Z,19.00
2018-06-28T05:05:00.600Z,18.50
2018-06-28T05:06:00.599Z,18.40
2018-06-28T05:07:00.648Z,18.50
2018-06-28T05:08:00.601Z,18.40
2018-06-28T05:09:00.600Z,18.20
2018-06-28T05:10:00.600Z,18.10
2018-06-28T05:11:00.596Z,17.90
2018-06-28T05:12:00.594Z,18.30
2018-06-28T05:13:00.595Z,18.50
2018-06-28T05:14:00.601Z,18.60
2018-06-28T05:15:00.603Z,18.70
2018-06-28T05:16:00.601Z,19.00
2018-06-28T05:17:00.621Z,19.10
2018-06-28T05:18:00.601Z,18.20
2018-06-28T05:19:00.606Z,17.80
2018-06-28T05:20:00.609Z,18.00
2018-06-28T05:21:00.610Z,18.20
2018-06-28T05:22:00.615Z,18.00
2018-06-28T05:23:00.612Z,17.80
2018-06-28T05:24:00.614Z,18.60
2018-06-28T05:25:00.617Z,18.80
2018-06-28T05:26:00.620Z,17.70
2018-06-28T05:27:00.630Z,17.30
2018-06-28T05:28:00.631Z,17.10
2018-06-28T05:29:00.639Z,18.00
2018-06-28T05:30:00.642Z,17.00
2018-06-28T05:31:00.640Z,16.80
2018-06-28T05:32:00.644Z,17.00
2018-06-28T05:33:00.653Z,17.10
2018-06-28T05:34:00.659Z,16.60
2018-06-28T05:35:00.737Z,15.80
2018-06-28T05:36:00.665Z,15.50
2018-06-28T05:37:00.668Z,15.90
2018-06-28T05:38:00.675Z,15.90
2018-06-28T05:39:00.684Z,15.80
2018-06-28T05:40:00.693Z,16.10
2018-06-28T05:41:00.699Z,14.80
2018-06-28T05:42:00.705Z,14.60
2018-06-28T05:43:00.703Z,15.60
2018-06-28T05:44:00.707Z,14.80
2018-06-28T05:45:00.714Z,14.70
2018-06-28T05:46:00.723Z,14.40
2018-06-28T05:47:00.773Z,16.30
2018-06-28T05:48:00.737Z,15.60
2018-06-28T05:49:00.741Z,12.80
2018-06-28T05:50:00.747Z,12.60
2018-06-28T05:51:00.759Z,12.60
2018-06-28T05:52:00.767Z,12.30
2018-06-28T05:53:00.771Z,11.80
2018-06-28T05:54:00.842Z,12.30
2018-06-28T05:55:00.782Z,12.00
2018-06-28T05:56:00.793Z,11.80
2018-06-28T05:57:00.795Z,11.20
2018-06-28T05:58:00.803Z,11.50
2018-06-28T05:59:00.820Z,11.10
2018-06-28T06:00:00.824Z,11.10
2018-06-28T06:01:00.830Z,10.90
2018-06-28T06:02:00.838Z,11.10
2018-06-28T06:03:00.842Z,10.30
2018-06-28T06:04:00.850Z,8.10
2018-06-28T06:05:00.863Z,7.80
2018-06-28T06:06:00.872Z,8.90
2018-06-28T06:07:00.880Z,8.60
2018-06-28T06:08:00.885Z,9.50
2018-06-28T06:09:00.895Z,9.90
2018-06-28T06:10:00.904Z,9.50
2018-06-28T06:11:00.918Z,9.30
2018-06-28T06:12:00.935Z,9.70
2018-06-28T06:13:00.942Z,9.90
2018-06-28T06:14:00.946Z,8.80
2018-06-28T06:15:00.949Z,9.30
2018-06-28T06:16:00.958Z,9.20
2018-06-28T06:17:00.969Z,9.40
2018-06-28T06:18:00.980Z,9.40
2018-06-28T06:19:00.992Z,9.20
2018-06-28T06:20:01.002Z,9.30
2018-06-28T06:21:01.009Z,8.50
2018-06-28T06:22:01.018Z,8.70
2018-06-28T06:23:01.032Z,9.20
2018-06-28T06:24:01.042Z,8.90
2018-06-28T06:25:01.053Z,8.80
2018-06-28T06:26:01.068Z,9.10
2018-06-28T06:27:01.070Z,8.70
2018-06-28T06:28:01.079Z,8.80
2018-06-28T06:29:01.090Z,8.40
2018-06-28T06:30:01.102Z,8.40
2018-06-28T06:31:01.118Z,8.40
2018-06-28T06:32:01.126Z,8.90
2018-06-28T06:33:01.137Z,8.20
2018-06-28T06:34:01.294Z,8.40
2018-06-28T06:35:01.156Z,8.20
2018-06-28T06:36:01.166Z,8.40
2018-06-28T06:37:01.181Z,8.20
2018-06-28T06:38:01.194Z,8.30
2018-06-28T06:39:01.199Z,8.40
2018-06-28T06:40:01.211Z,8.30
2018-06-28T06:41:01.272Z,8.00
2018-06-28T06:42:01.234Z,7.90
2018-06-28T06:43:01.251Z,8.00
2018-06-28T06:44:01.263Z,7.70
2018-06-28T06:45:01.273Z,7.20
2018-06-28T06:46:01.289Z,6.40
2018-06-28T06:47:01.294Z,8.90
2018-06-28T06:48:01.306Z,9.80
2018-06-28T06:49:01.318Z,6.50
2018-06-28T06:50:01.332Z,7.30
2018-06-28T06:51:01.346Z,6.80
2018-06-28T06:52:01.358Z,6.50
2018-06-28T06:53:01.367Z,6.80
2018-06-28T06:54:01.380Z,6.80
2018-06-28T06:55:01.397Z,6.80
2018-06-28T06:56:01.412Z,6.40
2018-06-28T06:57:01.422Z,6.30
2018-06-28T06:58:01.436Z,6.50
2018-06-28T06:59:01.444Z,6.10
2018-06-28T07:00:01.456Z,6.50
2018-06-28T07:01:01.470Z,5.80
2018-06-28T07:02:01.483Z,6.00
2018-06-28T07:03:01.503Z,6.90
2018-06-28T07:04:01.513Z,6.10
2018-06-28T07:05:01.528Z,6.40
2018-06-28T07:06:01.540Z,6.60
2018-06-28T07:07:01.549Z,6.80
2018-06-28T07:08:01.561Z,6.70
2018-06-28T07:09:01.579Z,6.90
2018-06-28T07:10:01.593Z,7.00
2018-06-28T07:11:01.603Z,6.60
2018-06-28T07:12:01.615Z,6.70
2018-06-28T07:13:01.632Z,6.70
2018-06-28T07:14:01.644Z,5.40
2018-06-28T07:15:01.664Z,5.10
2018-06-28T07:16:01.750Z,5.90
2018-06-28T07:17:01.688Z,5.90
2018-06-28T07:18:01.704Z,5.80
2018-06-28T07:19:01.713Z,5.80
2018-06-28T07:20:01.824Z,6.40
2018-06-28T07:21:01.740Z,6.40
2018-06-28T07:22:01.787Z,6.30
2018-06-28T07:23:01.798Z,5.80
2018-06-28T07:24:01.789Z,5.90
2018-06-28T07:25:01.799Z,6.40
2018-06-28T07:26:01.813Z,5.90
2018-06-28T07:27:01.831Z,6.00
2018-06-28T07:28:01.845Z,5.20
2018-06-28T07:29:01.859Z,5.80
2018-06-28T07:30:01.875Z,5.50
2018-06-28T07:31:01.885Z,5.20
2018-06-28T07:32:01.903Z,5.40
2018-06-28T07:33:01.938Z,5.10
2018-06-28T07:34:01.966Z,4.90
2018-06-28T07:35:01.950Z,4.60
2018-06-28T07:36:01.964Z,4.60
2018-06-28T07:37:01.980Z,4.40
2018-06-28T07:38:01.994Z,4.00
2018-06-28T07:39:02.008Z,4.10
2018-06-28T07:40:02.037Z,3.80
2018-06-28T07:41:02.046Z,4.20
2018-06-28T07:42:02.061Z,3.40
2018-06-28T07:43:02.068Z,3.40
2018-06-28T07:44:02.085Z,3.70
2018-06-28T07:45:02.099Z,3.50
2018-06-28T07:46:02.115Z,3.30
2018-06-28T07:47:02.135Z,3.40
2018-06-28T07:48:02.150Z,3.80
2018-06-28T07:49:02.211Z,3.30
2018-06-28T07:50:02.183Z,3.60
2018-06-28T07:51:02.196Z,4.70
2018-06-28T07:52:02.212Z,3.00
2018-06-28T07:53:02.230Z,3.70
2018-06-28T07:54:02.246Z,3.70
2018-06-28T07:55:02.267Z,3.20
2018-06-28T07:56:02.281Z,3.20
2018-06-28T07:57:02.295Z,3.20
2018-06-28T07:58:02.311Z,3.30
2018-06-28T07:59:02.332Z,3.00
2018-06-28T08:00:02.350Z,3.00
2018-06-28T08:01:02.366Z,3.20
2018-06-28T08:02:02.381Z,3.60
2018-06-28T08:03:02.393Z,3.20
2018-06-28T08:04:02.411Z,3.20
2018-06-28T08:05:02.427Z,3.30
2018-06-28T08:06:02.446Z,6.00
2018-06-28T08:07:02.466Z,3.30
2018-06-28T08:08:02.484Z,3.20
2018-06-28T08:09:02.501Z,2.90
2018-06-28T08:10:02.517Z,3.00
2018-06-28T08:11:02.531Z,3.80
2018-06-28T08:12:02.547Z,3.10
2018-06-28T08:13:02.570Z,2.80
2018-06-28T08:14:02.589Z,3.00
2018-06-28T08:15:02.600Z,3.20
2018-06-28T08:16:02.618Z,3.30
2018-06-28T08:17:02.636Z,2.90
2018-06-28T08:18:02.652Z,3.10
2018-06-28T08:19:02.674Z,3.00
2018-06-28T08:20:02.692Z,3.00
2018-06-28T08:21:02.709Z,3.30
2018-06-28T08:22:02.726Z,3.00
2018-06-28T08:23:02.740Z,3.20
2018-06-28T08:24:02.757Z,3.30
2018-06-28T08:25:02.774Z,3.20
2018-06-28T08:26:02.792Z,3.40
2018-06-28T08:27:02.867Z,3.50
2018-06-28T08:28:02.832Z,4.60
2018-06-28T08:29:02.845Z,3.40
2018-06-28T08:30:02.862Z,3.60
2018-06-28T08:31:02.884Z,4.00
2018-06-28T08:32:02.901Z,3.80
2018-06-28T08:33:02.920Z,4.00
2018-06-28T08:34:02.935Z,3.90
2018-06-28T08:35:02.948Z,3.60
2018-06-28T08:36:03.010Z,3.50
2018-06-28T08:37:02.982Z,3.50
2018-06-28T08:38:03.000Z,3.60
2018-06-28T08:39:03.023Z,3.90
2018-06-28T08:40:03.042Z,3.50
2018-06-28T08:41:03.055Z,3.80
2018-06-28T08:42:03.073Z,3.70
2018-06-28T08:43:03.085Z,4.20
2018-06-28T08:44:03.101Z,4.50
2018-06-28T08:45:03.123Z,3.50
2018-06-28T08:46:03.140Z,3.70
2018-06-28T08:47:03.153Z,3.70
2018-06-28T08:48:03.169Z,3.90
2018-06-28T08:49:03.260Z,4.10
2018-06-28T08:50:03.202Z,3.80
2018-06-28T08:51:03.224Z,3.90
2018-06-28T08:52:03.240Z,3.90
2018-06-28T08:53:03.254Z,4.20
2018-06-28T08:54:03.271Z,4.30
2018-06-28T08:55:03.285Z,3.90
2018-06-28T08:56:03.298Z,4.40
2018-06-28T08:57:03.315Z,4.50
2018-06-28T08:58:03.429Z,4.00
2018-06-28T08:59:03.352Z,3.50
2018-06-28T09:00:03.367Z,3.90
2018-06-28T09:01:03.384Z,3.60
2018-06-28T09:02:03.396Z,3.50
2018-06-28T09:03:03.418Z,3.50
2018-06-28T09:04:03.432Z,3.70
2018-06-28T09:05:03.453Z,3.80
2018-06-28T09:06:03.468Z,3.80
2018-06-28T09:07:03.480Z,4.20
2018-06-28T09:08:03.496Z,3.80
2018-06-28T09:09:03.512Z,4.90
2018-06-28T09:10:03.535Z,4.20
2018-06-28T09:11:03.551Z,4.60
2018-06-28T09:12:03.569Z,3.90
2018-06-28T09:13:03.584Z,3.80
2018-06-28T09:14:03.601Z,3.80
2018-06-28T09:15:03.614Z,3.90
2018-06-28T09:16:03.632Z,3.90
2018-06-28T09:17:03.654Z,3.50
2018-06-28T09:18:03.671Z,3.80
2018-06-28T09:19:03.684Z,3.40
2018-06-28T09:20:03.701Z,4.00
2018-06-28T09:21:03.722Z,4.80
2018-06-28T09:22:03.737Z,4.20
2018-06-28T09:23:03.766Z,4.00
2018-06-28T09:24:03.777Z,3.90
2018-06-28T09:25:03.795Z,4.10
2018-06-28T09:26:03.814Z,4.00
2018-06-28T09:27:03.825Z,3.90
2018-06-28T09:28:03.842Z,3.60
2018-06-28T09:29:03.860Z,3.90
2018-06-28T09:30:03.879Z,4.10
2018-06-28T09:31:03.903Z,3.90
2018-06-28T09:32:03.917Z,4.20
2018-06-28T09:33:03.930Z,4.00
2018-06-28T09:34:03.948Z,4.30
2018-06-28T09:35:03.970Z,3.80
2018-06-28T09:36:03.987Z,3.90
2018-06-28T09:37:04.007Z,4.20
2018-06-28T09:38:04.030Z,3.80
2018-06-28T09:39:04.038Z,3.90
2018-06-28T09:40:04.055Z,3.70
2018-06-28T09:41:04.072Z,4.10
2018-06-28T09:42:04.091Z,4.20
2018-06-28T09:43:04.112Z,4.60
2018-06-28T09:44:04.130Z,4.10
2018-06-28T09:45:04.152Z,3.90
2018-06-28T09:46:04.168Z,3.90
2018-06-28T09:47:04.180Z,4.30
2018-06-28T09:48:04.200Z,3.70
2018-06-28T09:49:04.224Z,3.60
2018-06-28T09:50:04.245Z,3.80
2018-06-28T09:51:04.252Z,3.90
2018-06-28T09:52:04.270Z,3.80
2018-06-28T09:53:04.287Z,3.90
2018-06-28T09:54:04.306Z,4.60
2018-06-28T09:55:04.329Z,4.20
2018-06-28T09:56:04.345Z,4.30
2018-06-28T09:57:04.363Z,4.40
2018-06-28T09:58:04.381Z,4.60
2018-06-28T09:59:04.395Z,4.80
2018-06-28T10:00:04.412Z,5.20
2018-06-28T10:01:04.429Z,5.10
2018-06-28T10:02:04.447Z,5.60
2018-06-28T10:03:04.469Z,5.40
2018-06-28T10:04:04.486Z,5.40
2018-06-28T10:05:04.498Z,5.40
2018-06-28T10:06:04.514Z,5.00
2018-06-28T10:07:04.537Z,5.60
2018-06-28T10:08:04.552Z,5.30
2018-06-28T10:09:04.570Z,5.20
2018-06-28T10:10:04.584Z,4.70
2018-06-28T10:11:04.597Z,4.80
2018-06-28T10:12:04.613Z,5.10
2018-06-28T10:13:04.630Z,4.80
2018-06-28T10:14:04.646Z,4.90
2018-06-28T10:15:04.672Z,4.40
2018-06-28T10:16:04.683Z,4.00
2018-06-28T10:17:04.701Z,3.90
2018-06-28T10:18:04.752Z,3.90
2018-06-28T10:19:04.730Z,4.20
2018-06-28T10:20:04.747Z,4.20
2018-06-28T10:21:04.769Z,4.20
2018-06-28T10:22:04.786Z,3.20
2018-06-28T10:23:04.799Z,3.50
2018-06-28T10:24:04.814Z,3.50
2018-06-28T10:25:04.856Z,3.50
2018-06-28T10:26:04.848Z,3.60
2018-06-28T10:27:04.870Z,3.60
2018-06-28T10:28:04.886Z,3.40
2018-06-28T10:29:04.903Z,3.70
2018-06-28T10:30:04.922Z,3.50
2018-06-28T10:31:04.936Z,3.30
2018-06-28T10:32:04.949Z,3.10
2018-06-28T10:33:04.967Z,3.30
2018-06-28T10:34:04.985Z,3.30
2018-06-28T10:35:05.007Z,3.80
2018-06-28T10:36:05.023Z,3.40
2018-06-28T10:37:05.035Z,6.70
2018-06-28T10:38:05.053Z,4.70
2018-06-28T10:39:05.074Z,3.50
2018-06-28T10:40:05.090Z,4.00
2018-06-28T10:41:05.108Z,5.40
2018-06-28T10:42:05.124Z,4.50
2018-06-28T10:43:05.136Z,5.10
2018-06-28T10:44:05.153Z,5.00
2018-06-28T10:45:05.171Z,5.20
2018-06-28T10:46:05.186Z,5.80
2018-06-28T10:47:05.208Z,5.40
2018-06-28T10:48:05.229Z,5.90
2018-06-28T10:49:05.241Z,5.60
2018-06-28T10:50:05.258Z,5.40
2018-06-28T10:51:05.266Z,5.40
2018-06-28T10:52:05.282Z,5.40
2018-06-28T10:53:05.304Z,6.30
2018-06-28T10:54:05.413Z,5.10
2018-06-28T10:55:05.330Z,7.10
2018-06-28T10:56:05.344Z,5.30
2018-06-28T10:57:05.362Z,5.40
2018-06-28T10:58:05.377Z,5.20
2018-06-28T10:59:05.397Z,6.20
2018-06-28T11:00:05.413Z,5.20
2018-06-28T11:01:05.428Z,4.40
2018-06-28T11:02:05.444Z,4.90
2018-06-28T11:03:05.456Z,5.10
2018-06-28T11:04:05.471Z,4.60
2018-06-28T11:05:05.489Z,4.90
2018-06-28T11:06:05.503Z,5.00
2018-06-28T11:07:05.523Z,5.00
2018-06-28T11:08:05.538Z,5.00
2018-06-28T11:09:05.550Z,5.50
2018-06-28T11:10:05.569Z,5.80
2018-06-28T11:11:05.587Z,6.00
2018-06-28T11:12:05.603Z,7.10
2018-06-28T11:13:05.620Z,6.00
2018-06-28T11:14:05.635Z,6.20
2018-06-28T11:15:05.645Z,5.60
2018-06-28T11:16:05.660Z,6.70
2018-06-28T11:17:05.676Z,7.20
2018-06-28T11:18:05.692Z,7.10
2018-06-28T11:19:05.713Z,7.60
2018-06-28T11:20:05.727Z,7.90
2018-06-28T11:21:05.742Z,8.20
2018-06-28T11:22:05.761Z,8.10
2018-06-28T11:23:05.772Z,8.10
2018-06-28T11:24:05.782Z,8.30
2018-06-28T11:25:05.817Z,7.90
2018-06-28T11:26:05.817Z,7.70
2018-06-28T11:27:05.827Z,7.70
2018-06-28T11:28:05.840Z,8.10
2018-06-28T11:29:05.856Z,9.30
2018-06-28T11:30:05.868Z,9.40
2018-06-28T11:31:05.887Z,9.60
2018-06-28T11:32:05.898Z,10.50
2018-06-28T11:33:05.910Z,10.60
2018-06-28T11:34:05.979Z,10.80
2018-06-28T11:35:05.929Z,10.50
2018-06-28T11:36:05.943Z,11.00
2018-06-28T11:37:05.950Z,11.10
2018-06-28T11:38:05.958Z,12.40
2018-06-28T11:39:05.975Z,11.80
2018-06-28T11:40:05.986Z,11.90
2018-06-28T11:41:05.991Z,11.90
2018-06-28T11:42:05.997Z,12.00
2018-06-28T11:43:06.011Z,12.60
2018-06-28T11:44:06.018Z,12.40
2018-06-28T11:45:06.029Z,12.30
2018-06-28T11:46:06.036Z,12.90
2018-06-28T11:47:06.039Z,13.10
2018-06-28T11:48:06.046Z,13.00
2018-06-28T11:49:06.054Z,13.20
2018-06-28T11:50:06.061Z,13.60
2018-06-28T11:51:06.081Z,12.10
2018-06-28T11:52:06.078Z,12.90
2018-06-28T11:53:06.100Z,12.60
2018-06-28T11:54:06.093Z,12.60
2018-06-28T11:55:06.097Z,13.10
2018-06-28T11:56:06.101Z,12.10
2018-06-28T11:57:06.112Z,12.50
2018-06-28T11:58:06.120Z,12.40
2018-06-28T11:59:06.122Z,12.80
2018-06-28T12:00:06.127Z,11.30
2018-06-28T12:01:06.133Z,12.80
2018-06-28T12:02:06.140Z,11.80
2018-06-28T12:03:06.150Z,23.30
2018-06-28T12:04:06.155Z,12.80
2018-06-28T12:05:06.162Z,12.10
2018-06-28T12:06:06.168Z,12.30
2018-06-28T12:07:06.170Z,12.70
2018-06-28T12:08:06.174Z,12.10
2018-06-28T12:09:06.181Z,12.10
2018-06-28T12:10:06.189Z,11.80
2018-06-28T12:11:06.197Z,12.30
2018-06-28T12:12:06.204Z,12.10
2018-06-28T12:13:06.204Z,12.20
2018-06-28T12:14:06.214Z,12.30
2018-06-28T12:15:06.222Z,11.90
2018-06-28T12:16:06.256Z,13.20
2018-06-28T12:17:06.233Z,12.20
2018-06-28T12:18:06.237Z,11.80
2018-06-28T12:19:06.238Z,11.60
2018-06-28T12:20:06.243Z,11.80
2018-06-28T12:21:06.248Z,12.20
2018-06-28T12:22:06.254Z,11.60
2018-06-28T12:23:06.264Z,12.00
2018-06-28T12:24:06.269Z,11.60
2018-06-28T12:25:06.276Z,12.60
2018-06-28T12:26:06.282Z,12.50
2018-06-28T12:27:06.282Z,12.10
2018-06-28T12:28:06.286Z,12.00
2018-06-28T12:29:06.297Z,12.20
2018-06-28T12:30:06.303Z,12.30
2018-06-28T12:31:06.348Z,12.60
2018-06-28T12:32:06.308Z,12.90
2018-06-28T12:33:06.313Z,12.80
2018-06-28T12:34:06.319Z,11.40
2018-06-28T12:35:06.328Z,12.10
2018-06-28T12:36:06.333Z,11.80
2018-06-28T12:37:06.338Z,11.80
2018-06-28T12:38:06.343Z,11.60
2018-06-28T12:39:06.369Z,12.00
2018-06-28T12:40:06.350Z,12.40
2018-06-28T12:41:06.356Z,12.00
2018-06-28T12:42:06.363Z,12.40
2018-06-28T12:43:06.371Z,12.30
2018-06-28T12:44:06.375Z,11.70
2018-06-28T12:45:06.378Z,21.60
2018-06-28T12:46:06.389Z,12.20
2018-06-28T12:47:06.393Z,12.30
2018-06-28T12:48:06.401Z,11.80
2018-06-28T12:49:06.401Z,12.30
2018-06-28T12:50:06.411Z,12.30
2018-06-28T12:51:06.408Z,12.30
2018-06-28T12:52:06.412Z,12.40
2018-06-28T12:53:06.418Z,12.30
2018-06-28T12:54:06.423Z,12.30
2018-06-28T12:55:06.434Z,12.30
2018-06-28T12:56:06.439Z,12.20
2018-06-28T12:57:06.443Z,12.50
2018-06-28T12:58:06.448Z,12.80
2018-06-28T12:59:06.449Z,12.20
2018-06-28T13:00:06.517Z,12.00
2018-06-28T13:01:06.463Z,12.00
2018-06-28T13:02:06.470Z,11.70
2018-06-28T13:03:06.470Z,11.90